Terminal Aerodrome Forecast
Issued by NWS

Home | Current Version | Previous Version | Text Only | Print | Product List | Glossary On
Versions: 1 2 3 4 5 6 7 8 9 10 11 12 13 14 15 16 17 18 19 20 21 22 23 24 25 26 27 28 29 30 31 32 33 34 35 36 37 38 39 40 41 42 43 44 45 46 47 48 49 50
661
FTUS45 KBOU 272340
TAFBJC
TAF
KBJC 272340Z 2800/2824 33007KT P6SM VCSH SCT035 BKN045 OVC060
      TEMPO 2800/2802 4SM -RA BKN030 OVC040
     FM280200 35008G15KT P6SM SCT040 BKN060 BKN080
     FM280400 28008KT P6SM SCT070 BKN100
     FM280600 26006KT P6SM FEW080 SCT120
     FM281400 32007KT P6SM FEW140=

USA.gov is the U.S. government's official web portal to all federal, state and local government web resources and services.